Indianapolis, Indiana
Traffic Map
Current Weather Conditions
Indianapolis, Indiana
Broken Clouds
Broken Clouds
71°
Feels Like: 71°
Wind Chill: 71° Ceiling: 9000
Heat Index: 71° Visibility: 10mi
Dew Point: 62° Wind: 9mph
Humidity: 73% Direction: 330° (NNW)
Pressure: 29.97in Gusts: 0mph
Raw Report DataKIND 011254Z 33008KT 10SM FEW028 SCT070 BKN090 22/17 A2997 RMK AO2 SLP142 ACC OHD AND W T02170167
Traffic Incident Summary
Active as of:
Severity:
Category:
InformationThere was an issue retrieving the traffic information for this location. Please try a different location or try again shortly.
Advertisements
Track Severe Weather on mobile